CheckWX is a tool to help pilots better visualize weather data.  It is not intended as a substitute for an official pre-flight weather briefing.

18:00:59 UTC

KJWN METAR
John C Tune Airport
Nashville, Tennessee, USA
Current

26 mins ago

KJWN 171735Z AUTO 00000KT 5SM BR FEW012 OVC019 07/07 A2979 RMK A01
Observed
Feb-17 @ 17:35 UTC
Visibility
5 SM
Flight Rules
MVFR
Conditions
Mist
Cloud Levels
  • Few at 1,200' AGL
  • Overcast at 1,900' AGL
Temperature
C / 45°F
Dewpoint
C / 45°F
Humidity
100%
Altimeter
29.79" Hg
Pressure
1008.82 hPa
Previous

1 hour ago

KJWN 171655Z AUTO 18003KT 4SM BR BKN003 BKN009 OVC026 07/06 A2979 RMK A01
Observed
Feb-17 @ 16:55 UTC
Wind
  • 180° at 3 KTS
Visibility
4 SM
Flight Rules
LIFR
Conditions
Mist
Cloud Levels
  • Broken at 300' AGL
  • Broken at 900' AGL
  • Overcast at 2,600' AGL
Temperature
C / 45°F
Dewpoint
C / 43°F
Humidity
93%
Altimeter
29.79" Hg
Pressure
1008.82 hPa
Previous

2 hours ago

KJWN 171615Z AUTO 28004KT 1SM BR OVC003 06/06 A2980 RMK A01
Observed
Feb-17 @ 16:15 UTC
Wind
  • 280° at 4 KTS
Visibility
1 SM
Flight Rules
LIFR
Conditions
Mist
Cloud Levels
  • Overcast at 300' AGL
Temperature
C / 43°F
Dewpoint
C / 43°F
Humidity
100%
Altimeter
29.8" Hg
Pressure
1009.12 hPa